Time;durP1;ratioP1;P1;durP2;ratioP2;P2;SDS_P1;SDS_P2;PMS_P1;PMS_P2;Temp;Humidity;BMP_temperature;BMP_pressure;BME280_temperature;BME280_humidity;BME280_pressure;Samples;Min_cycle;Max_cycle;Signal;HPM_P1;HPM_P2
2022/11/27 00:01:33;;;;;;;10.03;2.90;;;23.80;99.90;;;;;;5073850;28;20593;-68
2022/11/27 00:04:01;;;;;;;9.33;3.33;;;23.90;99.90;;;;;;5074988;28;20659;-67
2022/11/27 00:06:30;;;;;;;7.93;2.90;;;24.10;99.90;;;;;;5075197;28;20183;-67
2022/11/27 00:09:00;;;;;;;12.87;3.00;;;24.20;99.90;;;;;;5075380;28;20217;-69
2022/11/27 00:11:29;;;;;;;12.50;3.10;;;24.10;99.90;;;;;;5075009;28;20559;-67
2022/11/27 00:13:57;;;;;;;12.13;3.60;;;23.90;99.90;;;;;;5074639;28;20282;-67
2022/11/27 00:16:27;;;;;;;9.00;3.70;;;23.80;99.90;;;;;;5075038;28;20182;-67
2022/11/27 00:18:54;;;;;;;14.77;4.13;;;23.80;99.90;;;;;;5074956;28;20570;-68
2022/11/27 00:21:34;;;;;;;16.63;4.73;;;23.80;99.90;;;;;;5074748;28;20172;-67
2022/11/27 00:24:03;;;;;;;7.97;3.47;;;23.80;99.90;;;;;;5074867;28;20208;-68
2022/11/27 00:26:32;;;;;;;11.90;4.27;;;23.70;99.90;;;;;;5074777;28;20565;-68
2022/11/27 00:29:00;;;;;;;9.43;3.40;;;23.80;99.90;;;;;;5074548;28;20652;-67
2022/11/27 00:31:33;;;;;;;11.57;3.67;;;23.70;99.90;;;;;;5074573;28;20637;-67
2022/11/27 00:34:03;;;;;;;8.03;3.50;;;23.70;99.90;;;;;;5074431;28;20178;-67
2022/11/27 00:36:33;;;;;;;11.47;3.87;;;23.70;99.90;;;;;;5074408;28;20527;-68
2022/11/27 00:39:01;;;;;;;12.23;3.40;;;23.80;99.90;;;;;;5074492;28;20336;-68
2022/11/27 00:41:30;;;;;;;8.43;3.17;;;23.90;99.90;;;;;;5074796;28;20179;-68
2022/11/27 00:43:58;;;;;;;9.37;3.00;;;24.30;99.90;;;;;;5074332;28;20293;-67
2022/11/27 00:46:29;;;;;;;6.77;2.77;;;24.60;99.90;;;;;;5074477;28;20701;-68
2022/11/27 00:48:58;;;;;;;11.00;2.77;;;24.70;99.90;;;;;;5074251;28;20260;-68
2022/11/27 00:51:28;;;;;;;16.40;3.20;;;24.80;99.90;;;;;;5074473;28;20551;-72
2022/11/27 00:53:56;;;;;;;11.80;3.07;;;24.70;99.90;;;;;;5074248;28;20186;-68
2022/11/27 00:56:30;;;;;;;10.90;3.47;;;24.90;99.90;;;;;;5074228;28;20168;-68
2022/11/27 00:58:58;;;;;;;10.70;2.97;;;25.00;99.90;;;;;;5074294;28;20175;-68
2022/11/27 01:01:29;;;;;;;11.43;3.70;;;25.20;99.90;;;;;;5074110;28;20634;-72
2022/11/27 01:03:58;;;;;;;18.53;3.60;;;25.30;99.90;;;;;;5073883;28;20693;-68
2022/11/27 01:06:27;;;;;;;12.00;3.37;;;25.20;99.90;;;;;;5073977;28;20259;-68
2022/11/27 01:08:56;;;;;;;8.13;3.30;;;25.20;99.90;;;;;;5074040;28;20254;-67
2022/11/27 01:11:26;;;;;;;10.93;3.97;;;25.20;99.90;;;;;;5073974;28;20182;-67
2022/11/27 01:13:57;;;;;;;8.57;3.10;;;25.00;99.90;;;;;;5072318;28;20552;-68
2022/11/27 01:16:26;;;;;;;9.83;2.83;;;25.10;99.90;;;;;;5074180;28;20263;-67
2022/11/27 01:18:59;;;;;;;8.03;3.10;;;25.20;99.90;;;;;;5073728;28;20172;-68
2022/11/27 01:21:29;;;;;;;7.00;2.67;;;25.30;99.90;;;;;;5073530;28;20168;-72
2022/11/27 01:23:57;;;;;;;8.00;3.10;;;25.30;99.90;;;;;;5073755;28;20204;-67
2022/11/27 01:26:26;;;;;;;9.07;2.73;;;25.40;99.90;;;;;;5072896;28;20198;-68
2022/11/27 01:28:55;;;;;;;7.67;2.93;;;25.30;99.90;;;;;;5073543;28;20220;-68
2022/11/27 01:31:26;;;;;;;10.27;2.80;;;25.50;99.90;;;;;;5073507;28;20706;-69
2022/11/27 01:33:59;;;;;;;7.23;3.00;;;25.80;99.90;;;;;;5072161;28;20184;-70
2022/11/27 01:36:28;;;;;;;5.70;2.67;;;26.00;99.90;;;;;;5073566;28;20656;-68
2022/11/27 01:38:56;;;;;;;9.57;3.17;;;26.60;99.90;;;;;;5073273;28;20171;-68
2022/11/27 01:41:28;;;;;;;5.47;2.40;;;26.70;99.90;;;;;;5073275;28;20636;-68
2022/11/27 01:44:01;;;;;;;8.33;3.00;;;27.00;99.90;;;;;;5073279;28;20208;-68
2022/11/27 01:46:46;;;;;;;9.17;2.67;;;27.10;99.90;;;;;;5073298;28;20186;-68
2022/11/27 01:49:20;;;;;;;8.67;2.63;;;27.20;99.90;;;;;;5073120;28;20174;-68
2022/11/27 01:51:51;;;;;;;8.23;3.00;;;27.30;99.90;;;;;;5073407;28;20230;-68
2022/11/27 01:54:22;;;;;;;7.87;3.50;;;27.20;99.90;;;;;;5073292;28;20176;-71
2022/11/27 01:56:55;;;;;;;8.40;3.37;;;27.40;99.90;;;;;;5073514;28;20176;-68
2022/11/27 01:59:23;;;;;;;13.37;2.93;;;27.80;99.90;;;;;;5073279;28;20172;-67
2022/11/27 02:01:51;;;;;;;8.03;2.77;;;28.00;99.90;;;;;;5073257;28;20172;-68
2022/11/27 02:04:19;;;;;;;17.33;3.47;;;28.00;99.90;;;;;;5072856;28;20239;-68
2022/11/27 02:06:47;;;;;;;10.23;2.70;;;27.60;99.90;;;;;;5073317;28;20581;-68
2022/11/27 02:09:15;;;;;;;13.03;3.23;;;27.50;99.90;;;;;;5073184;28;20172;-68
2022/11/27 02:12:02;;;;;;;7.47;2.80;;;27.50;99.90;;;;;;5073099;28;20258;-68
2022/11/27 02:14:47;;;;;;;16.43;3.30;;;27.60;99.90;;;;;;5073018;28;20188;-68
2022/11/27 02:17:33;;;;;;;18.97;3.27;;;27.80;99.90;;;;;;5073409;28;20649;-68
2022/11/27 02:20:06;;;;;;;8.40;2.50;;;27.90;99.90;;;;;;5073559;28;20167;-68
2022/11/27 02:22:58;;;;;;;6.73;2.97;;;28.00;99.90;;;;;;5072911;28;20187;-68
2022/11/27 02:25:32;;;;;;;8.60;2.73;;;27.80;99.90;;;;;;5073327;28;20265;-69
2022/11/27 02:28:24;;;;;;;5.70;2.87;;;27.80;99.90;;;;;;5072916;28;20183;-70
2022/11/27 02:31:02;;;;;;;5.53;2.10;;;27.70;99.90;;;;;;5073352;28;20703;-68
2022/11/27 02:33:31;;;;;;;8.03;2.90;;;27.60;99.90;;;;;;5072839;28;20198;-68
2022/11/27 02:36:11;;;;;;;11.40;3.80;;;27.50;99.90;;;;;;5073543;28;20211;-68
2022/11/27 02:38:43;;;;;;;9.43;3.70;;;27.50;99.90;;;;;;5076929;28;20183;-68
2022/11/27 02:41:32;;;;;;;8.93;3.33;;;27.60;99.90;;;;;;5077084;28;20171;-68
2022/11/27 02:44:01;;;;;;;8.93;3.40;;;27.70;99.90;;;;;;5076740;28;20204;-68
2022/11/27 02:46:29;;;;;;;7.17;3.63;;;27.80;99.90;;;;;;5076826;28;20187;-68
2022/11/27 02:49:02;;;;;;;9.20;3.60;;;27.80;99.90;;;;;;5076710;28;20168;-68
2022/11/27 02:51:41;;;;;;;8.47;3.50;;;28.30;99.90;;;;;;5076856;28;20266;-68
2022/11/27 02:54:17;;;;;;;6.43;2.53;;;29.00;99.90;;;;;;5076600;28;20172;-68
2022/11/27 02:56:47;;;;;;;6.40;2.97;;;29.20;99.90;;;;;;5076710;28;20179;-68
2022/11/27 02:59:16;;;;;;;7.67;3.00;;;29.60;99.90;;;;;;5076664;28;20184;-68
2022/11/27 03:01:57;;;;;;;7.67;3.33;;;30.10;99.90;;;;;;5076617;28;20180;-68
2022/11/27 03:04:33;;;;;;;6.97;3.10;;;30.50;99.90;;;;;;5074866;28;20727;-68
2022/11/27 03:07:11;;;;;;;6.13;2.57;;;30.70;99.90;;;;;;5076805;28;20176;-68
2022/11/27 03:09:49;;;;;;;8.53;2.77;;;30.60;99.90;;;;;;5076364;28;20176;-68
2022/11/27 03:12:18;;;;;;;9.60;2.90;;;30.50;99.90;;;;;;5076396;28;20164;-68
2022/11/27 03:14:47;;;;;;;8.95;3.50;;;30.20;99.90;;;;;;5076247;28;20180;-68
2022/11/27 03:17:39;;;;;;;8.90;3.05;;;30.20;99.90;;;;;;5076147;28;20661;-68
2022/11/27 03:20:07;;;;;;;7.40;2.83;;;30.00;99.90;;;;;;5075918;28;20494;-68
2022/11/27 03:22:35;;;;;;;9.37;3.17;;;29.70;99.90;;;;;;5075870;28;20269;-68
2022/11/27 03:25:03;;;;;;;8.10;2.57;;;29.80;99.90;;;;;;5075913;28;20357;-68
2022/11/27 03:28:00;;;;;;;6.53;2.73;;;30.00;99.90;;;;;;5075937;28;20266;-68
2022/11/27 03:30:28;;;;;;;11.93;2.97;;;30.90;99.90;;;;;;5073627;28;20237;-74
2022/11/27 03:32:56;;;;;;;8.98;2.67;;;31.80;99.90;;;;;;5075837;28;20188;-69
2022/11/27 03:35:26;;;;;;;4.47;2.47;;;32.40;99.90;;;;;;5075939;28;20232;-69
2022/11/27 03:37:55;;;;;;;4.93;2.20;;;32.70;99.90;;;;;;5076297;28;20186;-68
2022/11/27 03:40:28;;;;;;;7.70;2.50;;;32.50;99.90;;;;;;5075655;28;20179;-73
2022/11/27 03:43:21;;;;;;;5.15;2.20;;;32.20;99.90;;;;;;5075569;28;20176;-68
2022/11/27 03:45:57;;;;;;;7.75;3.03;;;31.90;99.90;;;;;;5076069;28;20317;-68
2022/11/27 03:49:09;;;;;;;9.05;2.17;;;31.80;99.90;;;;;;5074652;28;20187;-68
2022/11/27 03:51:51;;;;;;;5.75;2.40;;;32.30;99.90;;;;;;5065427;28;20195;-69
2022/11/27 03:54:31;;;;;;;1.98;1.77;;;33.00;99.90;;;;;;5075632;28;20176;-69
2022/11/27 03:57:16;;;;;;;2.58;1.75;;;33.20;99.90;;;;;;5075392;28;20621;-69
2022/11/27 03:59:47;;;;;;;6.32;2.28;;;33.40;99.90;;;;;;5075410;28;20183;-70
2022/11/27 04:02:16;;;;;;;3.45;2.20;;;32.90;99.60;;;;;;5075126;28;20547;-69
2022/11/27 04:04:44;;;;;;;4.72;1.73;;;32.50;99.90;;;;;;5075290;28;20294;-68
2022/11/27 04:07:17;;;;;;;3.40;1.90;;;32.20;99.90;;;;;;5075139;28;20172;-68
2022/11/27 04:09:44;;;;;;;4.55;1.75;;;32.40;98.60;;;;;;5075281;28;20172;-69
2022/11/27 04:12:12;;;;;;;4.03;1.52;;;32.60;97.40;;;;;;5075040;28;20641;-68
2022/11/27 04:14:40;;;;;;;7.22;2.20;;;32.50;97.70;;;;;;5075217;28;20175;-69
2022/11/27 04:17:08;;;;;;;2.83;1.65;;;32.30;98.50;;;;;;5074778;28;20172;-68
2022/11/27 04:19:36;;;;;;;2.63;1.48;;;32.30;99.90;;;;;;5073727;28;20183;-72
2022/11/27 04:22:04;;;;;;;5.72;1.60;;;32.40;99.70;;;;;;5074661;28;20628;-69
2022/11/27 04:24:32;;;;;;;5.68;1.90;;;32.20;99.00;;;;;;5074906;28;20207;-68
2022/11/27 04:26:59;;;;;;;4.28;2.00;;;32.10;98.80;;;;;;5074918;28;20508;-68
2022/11/27 04:29:27;;;;;;;4.10;1.90;;;31.60;99.90;;;;;;5074845;28;20180;-69
2022/11/27 04:31:55;;;;;;;7.60;2.43;;;31.00;99.90;;;;;;5074775;28;20171;-68
2022/11/27 04:34:23;;;;;;;3.97;2.17;;;30.80;99.90;;;;;;5073337;28;20667;-68
2022/11/27 04:36:51;;;;;;;7.22;2.45;;;30.70;99.90;;;;;;5074607;28;20271;-72
2022/11/27 04:39:19;;;;;;;4.87;1.93;;;30.50;99.90;;;;;;5074463;28;20661;-68
2022/11/27 04:41:46;;;;;;;3.33;1.60;;;30.40;99.90;;;;;;5074462;28;20180;-68
2022/11/27 04:44:14;;;;;;;2.60;1.23;;;30.40;99.90;;;;;;5074344;28;20291;-68
2022/11/27 04:46:43;;;;;;;6.23;1.33;;;30.50;98.40;;;;;;5074437;28;20660;-68
2022/11/27 04:49:11;;;;;;;3.00;1.30;;;30.60;96.60;;;;;;5074344;28;20172;-69
2022/11/27 04:51:39;;;;;;;3.87;1.30;;;30.80;94.70;;;;;;5074334;28;20599;-72
2022/11/27 04:54:07;;;;;;;5.07;1.55;;;31.00;96.20;;;;;;5074385;28;20202;-69
2022/11/27 04:56:35;;;;;;;5.70;2.27;;;31.10;96.20;;;;;;5074188;28;20172;-69
2022/11/27 04:59:03;;;;;;;6.90;2.40;;;31.10;99.90;;;;;;5074628;28;20172;-68
2022/11/27 05:01:31;;;;;;;6.67;2.13;;;31.00;99.90;;;;;;5074250;28;20196;-68
2022/11/27 05:03:59;;;;;;;5.13;1.83;;;30.80;99.90;;;;;;5073785;28;20701;-69
2022/11/27 05:06:27;;;;;;;8.10;2.70;;;30.60;99.90;;;;;;5074286;28;20217;-72
2022/11/27 05:08:58;;;;;;;5.50;2.63;;;30.40;99.90;;;;;;5073963;28;20642;-68
2022/11/27 05:11:27;;;;;;;8.23;2.53;;;30.30;99.90;;;;;;5074032;28;20221;-67
2022/11/27 05:16:42;;;;;;;6.33;2.70;;;29.90;99.90;;;;;;5074165;28;20179;-69
2022/11/27 05:19:11;;;;;;;7.17;2.20;;;29.80;99.90;;;;;;5072357;28;20620;-68
2022/11/27 05:21:39;;;;;;;3.43;2.17;;;29.80;99.90;;;;;;5073832;28;20198;-67
2022/11/27 05:24:08;;;;;;;5.17;2.20;;;30.00;99.90;;;;;;5073564;28;20229;-68
2022/11/27 05:26:36;;;;;;;5.83;2.87;;;30.20;99.90;;;;;;5073697;28;20180;-68
2022/11/27 05:29:05;;;;;;;7.35;3.15;;;30.30;99.90;;;;;;5074110;28;20539;-69
2022/11/27 05:31:33;;;;;;;9.80;3.20;;;30.30;99.90;;;;;;5073789;28;20265;-67
2022/11/27 05:34:01;;;;;;;6.83;2.93;;;30.20;99.90;;;;;;5073432;28;20176;-67
2022/11/27 05:36:29;;;;;;;5.53;3.10;;;30.10;99.90;;;;;;5073611;28;20176;-68
2022/11/27 05:38:57;;;;;;;9.20;3.57;;;29.90;99.90;;;;;;5073468;28;20180;-67
2022/11/27 05:41:25;;;;;;;7.23;2.50;;;30.20;99.90;;;;;;5073247;28;20172;-67
2022/11/27 05:43:53;;;;;;;4.50;2.77;;;30.30;99.90;;;;;;5073419;28;20207;-71
2022/11/27 05:46:22;;;;;;;7.45;3.08;;;30.30;99.90;;;;;;5073576;28;20195;-67
2022/11/27 05:48:50;;;;;;;5.50;3.07;;;30.50;99.90;;;;;;5073466;28;20184;-69
2022/11/27 05:51:18;;;;;;;11.75;3.90;;;30.60;99.90;;;;;;5073416;28;20180;-67
2022/11/27 05:53:46;;;;;;;7.57;3.30;;;30.40;99.90;;;;;;5073250;28;20248;-71
2022/11/27 05:56:16;;;;;;;9.20;3.50;;;30.10;99.90;;;;;;5073487;28;20180;-69
2022/11/27 05:58:46;;;;;;;6.17;3.13;;;29.80;99.90;;;;;;5073341;28;20204;-68
2022/11/27 06:01:15;;;;;;;7.53;3.27;;;29.70;99.90;;;;;;5073160;28;20598;-69
2022/11/27 06:03:44;;;;;;;10.13;3.47;;;29.40;99.90;;;;;;5077127;28;20246;-70
2022/11/27 06:06:21;;;;;;;4.03;2.30;;;29.20;99.90;;;;;;5090027;28;20191;-70
2022/11/27 06:08:49;;;;;;;11.13;2.93;;;28.90;99.90;;;;;;5082162;28;20194;-70
2022/11/27 06:11:21;;;;;;;23.40;3.80;;;28.70;99.90;;;;;;5089768;28;20694;-73
2022/11/27 06:13:50;;;;;;;5.83;2.20;;;29.00;99.90;;;;;;5072051;28;20184;-68
2022/11/27 06:16:23;;;;;;;12.40;2.50;;;29.20;99.90;;;;;;5083907;28;20180;-72
2022/11/27 06:18:53;;;;;;;6.57;2.63;;;29.60;99.90;;;;;;5082579;28;20210;-73
2022/11/27 06:21:22;;;;;;;5.33;2.53;;;29.60;99.90;;;;;;5071406;28;20241;-72
2022/11/27 06:23:53;;;;;;;2.70;1.80;;;29.10;99.90;;;;;;5068889;28;20273;-73
2022/11/27 06:26:24;;;;;;;6.40;1.80;;;28.80;99.90;;;;;;5071139;28;20176;-70
2022/11/27 06:28:53;;;;;;;5.17;1.60;;;28.40;99.90;;;;;;5071455;28;20187;-75
2022/11/27 06:31:24;;;;;;;6.47;1.23;;;28.20;99.90;;;;;;5071420;28;20176;-69
2022/11/27 06:33:53;;;;;;;5.40;1.17;;;28.10;99.90;;;;;;5072461;28;20187;-70
2022/11/27 06:36:23;;;;;;;3.67;1.33;;;28.00;99.90;;;;;;5077901;28;20191;-69
2022/11/27 06:38:51;;;;;;;3.37;1.33;;;27.90;99.90;;;;;;5071530;28;20172;-68
2022/11/27 06:41:21;;;;;;;2.00;1.13;;;28.10;99.90;;;;;;5070537;28;20195;-68
2022/11/27 06:43:49;;;;;;;3.23;1.50;;;28.40;99.90;;;;;;5071008;28;20211;-69
2022/11/27 06:46:19;;;;;;;2.90;1.27;;;28.40;99.90;;;;;;5075270;28;20248;-68
2022/11/27 06:48:48;;;;;;;7.77;1.30;;;28.40;99.90;;;;;;5072308;28;20310;-68
2022/11/27 06:51:19;;;;;;;10.37;1.73;;;28.20;99.90;;;;;;5072105;28;20211;-69
2022/11/27 06:53:46;;;;;;;4.47;1.47;;;27.90;99.90;;;;;;5071420;28;20538;-69
2022/11/27 06:56:17;;;;;;;4.63;1.77;;;27.90;99.90;;;;;;5070448;28;20622;-71
2022/11/27 06:58:45;;;;;;;7.93;1.60;;;27.90;99.90;;;;;;5068605;28;20336;-69
2022/11/27 07:01:16;;;;;;;2.33;1.43;;;27.90;99.90;;;;;;5089918;28;20176;-68
2022/11/27 07:03:44;;;;;;;2.37;1.20;;;27.90;99.90;;;;;;5079236;28;20230;-68
2022/11/27 07:06:15;;;;;;;3.20;1.30;;;27.80;99.90;;;;;;5079172;28;20263;-69
2022/11/27 07:08:43;;;;;;;6.00;1.17;;;27.70;99.90;;;;;;5070865;28;20183;-68
2022/11/27 07:11:20;;;;;;;4.77;1.23;;;27.60;99.90;;;;;;5069715;28;20583;-68
2022/11/27 07:13:49;;;;;;;1.90;1.07;;;27.60;99.90;;;;;;5077303;28;20176;-69
2022/11/27 07:16:18;;;;;;;2.83;0.90;;;27.60;99.90;;;;;;5057343;28;20168;-68
2022/11/27 07:18:52;;;;;;;2.10;1.40;;;27.50;99.90;;;;;;5070822;28;20176;-68
2022/11/27 07:21:20;;;;;;;2.13;1.10;;;27.50;99.90;;;;;;5077489;28;20267;-68
2022/11/27 07:23:48;;;;;;;3.17;1.70;;;27.40;99.90;;;;;;5070476;28;20215;-68
2022/11/27 07:26:18;;;;;;;2.13;1.20;;;27.30;99.90;;;;;;5074358;28;20176;-69
2022/11/27 07:28:47;;;;;;;3.43;1.40;;;27.30;99.90;;;;;;5074282;28;20550;-70
2022/11/27 07:31:21;;;;;;;4.53;1.70;;;27.10;99.90;;;;;;5074248;28;20599;-72
2022/11/27 07:33:51;;;;;;;3.50;1.60;;;26.90;99.90;;;;;;5093887;28;20189;-67
2022/11/27 07:36:22;;;;;;;2.37;1.70;;;26.90;99.90;;;;;;5071929;28;20215;-70
2022/11/27 07:38:50;;;;;;;3.53;1.70;;;26.90;99.90;;;;;;5081772;28;20187;-69
2022/11/27 07:41:19;;;;;;;4.60;2.20;;;26.80;99.90;;;;;;5073514;28;20233;-69
2022/11/27 07:43:47;;;;;;;4.37;1.93;;;26.70;99.90;;;;;;5074099;28;20673;-69
2022/11/27 07:46:20;;;;;;;3.30;1.40;;;26.70;99.90;;;;;;5074296;28;20629;-71
2022/11/27 07:48:48;;;;;;;3.70;1.20;;;26.50;99.90;;;;;;5073693;28;20183;-70
2022/11/27 07:51:18;;;;;;;5.43;1.83;;;26.30;99.90;;;;;;5074239;28;20206;-70
2022/11/27 07:53:47;;;;;;;9.83;2.30;;;26.30;99.90;;;;;;5083893;28;20171;-71
2022/11/27 20:44:34;;;;;;;10.33;2.80;;;19.00;99.90;;;;;;4909719;29;20251;-71
2022/11/27 20:47:01;;;;;;;6.63;2.77;;;19.10;99.90;;;;;;4914637;29;20194;-70
2022/11/27 20:49:29;;;;;;;12.57;2.90;;;19.20;99.90;;;;;;4926385;29;20191;-71
2022/11/27 20:51:58;;;;;;;13.30;2.37;;;19.30;99.90;;;;;;4936181;29;20641;-72
2022/11/27 20:54:27;;;;;;;12.57;3.23;;;19.20;99.90;;;;;;4936024;29;20180;-71
2022/11/27 20:56:55;;;;;;;15.17;3.23;;;19.10;99.90;;;;;;4929852;29;20608;-67
2022/11/27 20:59:22;;;;;;;16.23;2.90;;;19.10;99.90;;;;;;4916986;29;20439;-69
2022/11/27 21:01:49;;;;;;;10.13;2.40;;;19.30;99.90;;;;;;4917001;29;20185;-69
2022/11/27 21:04:26;;;;;;;10.03;2.60;;;19.50;99.90;;;;;;4916357;29;20235;-68
2022/11/27 21:06:53;;;;;;;15.57;3.70;;;19.60;99.90;;;;;;4917111;29;20226;-69
2022/11/27 21:09:21;;;;;;;10.27;2.53;;;19.70;99.90;;;;;;4916209;29;20248;-70
2022/11/27 21:11:49;;;;;;;14.13;2.90;;;19.70;99.90;;;;;;4916363;29;20247;-70
2022/11/27 21:14:17;;;;;;;18.97;2.67;;;19.60;99.90;;;;;;4916551;29;20199;-70
2022/11/27 21:16:48;;;;;;;12.73;3.23;;;19.70;99.90;;;;;;4919659;29;20184;-70
2022/11/27 21:19:25;;;;;;;14.37;3.83;;;19.80;99.90;;;;;;4920962;29;20185;-69
2022/11/27 21:21:53;;;;;;;15.07;3.33;;;19.80;99.90;;;;;;4921705;29;20185;-69
2022/11/27 21:24:22;;;;;;;17.63;2.80;;;20.00;99.90;;;;;;4918043;29;20261;-68
2022/11/27 21:26:50;;;;;;;13.30;2.43;;;20.00;99.90;;;;;;4919457;29;20190;-72
2022/11/27 21:29:23;;;;;;;13.57;2.37;;;20.10;99.90;;;;;;4919037;29;20185;-71
2022/11/27 21:31:51;;;;;;;15.90;2.87;;;20.30;99.90;;;;;;4916685;29;20185;-69
2022/11/27 21:34:19;;;;;;;14.07;3.60;;;20.40;99.90;;;;;;4915133;29;20201;-71
2022/11/27 21:36:46;;;;;;;17.23;3.00;;;20.50;99.90;;;;;;4916398;29;20193;-69
2022/11/27 21:39:19;;;;;;;10.17;2.60;;;20.60;99.90;;;;;;4923932;29;20192;-72
2022/11/27 21:41:48;;;;;;;19.63;3.17;;;20.70;99.90;;;;;;4923826;29;20192;-68
2022/11/27 21:44:17;;;;;;;13.27;2.70;;;20.70;99.90;;;;;;4917764;29;20213;-71
2022/11/27 21:46:45;;;;;;;14.33;3.40;;;20.70;99.90;;;;;;4916113;29;20724;-71
2022/11/27 21:49:14;;;;;;;14.67;2.97;;;20.90;99.90;;;;;;4915375;29;20329;-69
2022/11/27 21:51:42;;;;;;;15.00;2.63;;;21.20;99.90;;;;;;4916341;29;20188;-72
2022/11/27 21:54:14;;;;;;;13.43;2.80;;;21.30;99.90;;;;;;4917027;29;20177;-69
2022/11/27 21:56:41;;;;;;;20.83;2.80;;;21.50;99.90;;;;;;4913699;29;20286;-70
2022/11/27 21:59:13;;;;;;;18.03;3.27;;;21.70;99.90;;;;;;4918079;29;20191;-69
2022/11/27 22:01:40;;;;;;;11.43;2.37;;;21.60;99.90;;;;;;4927851;29;20188;-69
2022/11/27 22:04:08;;;;;;;12.37;2.60;;;21.50;99.90;;;;;;4934704;29;20189;-70
2022/11/27 22:06:38;;;;;;;11.60;3.27;;;21.40;99.90;;;;;;4920054;29;20200;-72
2022/11/27 22:09:06;;;;;;;17.67;2.70;;;21.40;99.90;;;;;;4903261;29;20199;-68
2022/11/27 22:11:34;;;;;;;14.00;2.80;;;21.50;99.90;;;;;;4915109;29;20196;-71
2022/11/27 22:14:04;;;;;;;10.93;2.80;;;21.70;99.90;;;;;;4915957;29;20251;-70
2022/11/27 22:16:34;;;;;;;13.10;2.50;;;22.10;99.90;;;;;;4915794;29;20198;-73
2022/11/27 22:19:03;;;;;;;14.80;2.90;;;22.20;99.90;;;;;;4914691;29;20195;-69
2022/11/27 22:21:31;;;;;;;10.83;2.80;;;22.30;99.90;;;;;;4915514;29;20211;-69
2022/11/27 22:24:01;;;;;;;14.20;2.90;;;22.40;99.90;;;;;;4914948;29;20200;-71
2022/11/27 22:26:29;;;;;;;12.63;2.77;;;22.60;99.90;;;;;;4915186;29;20555;-69
2022/11/27 22:28:57;;;;;;;12.10;2.77;;;22.50;99.90;;;;;;4915376;29;20210;-69
2022/11/27 22:31:32;;;;;;;10.27;2.47;;;22.60;99.90;;;;;;4913333;29;20184;-71
2022/11/27 22:34:00;;;;;;;16.43;3.17;;;22.40;99.90;;;;;;4923178;29;20207;-73
2022/11/27 22:36:29;;;;;;;19.87;3.97;;;22.40;99.90;;;;;;4934780;29;20197;-71
2022/11/27 22:38:58;;;;;;;15.33;2.67;;;22.40;99.90;;;;;;4918840;29;20202;-73
2022/11/27 22:41:27;;;;;;;13.00;2.73;;;22.30;99.90;;;;;;4915508;29;20668;-75
2022/11/27 22:43:57;;;;;;;12.17;3.07;;;22.20;99.90;;;;;;4915794;29;20196;-73
2022/11/27 22:46:27;;;;;;;15.27;2.87;;;22.20;99.90;;;;;;4915405;29;20718;-73
2022/11/27 22:49:00;;;;;;;19.53;2.83;;;22.30;99.90;;;;;;4915235;29;20231;-70
2022/11/27 22:51:29;;;;;;;11.77;3.00;;;22.50;99.90;;;;;;4933380;29;20549;-69
2022/11/27 22:53:57;;;;;;;13.20;3.03;;;22.80;99.90;;;;;;4936803;29;20184;-67
2022/11/27 22:56:25;;;;;;;11.93;2.40;;;23.20;99.90;;;;;;4937910;29;20180;-69
2022/11/27 22:58:53;;;;;;;14.73;2.47;;;23.20;99.90;;;;;;4938319;29;20192;-71
2022/11/27 23:01:25;;;;;;;12.97;2.43;;;22.80;99.90;;;;;;4919702;29;20265;-68
2022/11/27 23:03:53;;;;;;;16.37;3.33;;;22.50;99.90;;;;;;4918698;29;21024;-69
2022/11/27 23:06:23;;;;;;;9.53;2.33;;;22.40;99.90;;;;;;4918948;29;20225;-68
2022/11/27 23:08:51;;;;;;;8.10;2.37;;;22.20;99.90;;;;;;4919121;29;20212;-72
2022/11/27 23:11:26;;;;;;;12.43;2.73;;;21.90;99.90;;;;;;4918643;29;20203;-72
2022/11/27 23:13:56;;;;;;;9.67;2.77;;;21.70;99.90;;;;;;4919467;29;20236;-68
2022/11/27 23:16:24;;;;;;;15.27;2.70;;;21.60;99.90;;;;;;4919898;29;20190;-73
2022/11/27 23:18:52;;;;;;;11.70;2.73;;;21.50;99.90;;;;;;4918546;29;20201;-68
2022/11/27 23:21:22;;;;;;;9.73;1.97;;;21.30;99.90;;;;;;4917919;29;20192;-72
2022/11/27 23:23:50;;;;;;;13.77;2.43;;;21.40;99.90;;;;;;4918934;29;20203;-69
2022/11/27 23:26:21;;;;;;;16.77;2.80;;;21.50;99.90;;;;;;4918039;29;20343;-68
2022/11/27 23:28:50;;;;;;;11.37;2.37;;;21.60;99.90;;;;;;4930418;29;20185;-67
2022/11/27 23:31:22;;;;;;;10.80;2.63;;;21.60;99.90;;;;;;4924002;29;20199;-67
2022/11/27 23:33:49;;;;;;;10.70;2.83;;;21.70;99.90;;;;;;4918289;29;20201;-67
2022/11/27 23:36:17;;;;;;;19.03;2.53;;;21.60;99.90;;;;;;4918814;29;20196;-69
2022/11/27 23:38:45;;;;;;;16.10;2.93;;;21.50;99.90;;;;;;4918443;29;20216;-69
2022/11/27 23:41:15;;;;;;;13.40;3.27;;;21.20;99.90;;;;;;4917512;29;20193;-70
2022/11/27 23:43:43;;;;;;;10.67;2.57;;;21.20;99.90;;;;;;4918225;29;20200;-70
2022/11/27 23:46:13;;;;;;;14.93;3.30;;;21.30;99.90;;;;;;4917234;29;20270;-72
2022/11/27 23:48:41;;;;;;;9.17;2.43;;;21.30;99.90;;;;;;4917628;29;20180;-77
2022/11/27 23:51:20;;;;;;;12.17;2.50;;;21.40;99.90;;;;;;4918525;29;20177;-73
2022/11/27 23:53:51;;;;;;;11.83;2.53;;;21.60;99.90;;;;;;4933476;29;20669;-70
2022/11/27 23:56:21;;;;;;;8.90;2.03;;;21.80;99.90;;;;;;4924061;29;20563;-74
2022/11/27 23:58:49;;;;;;;13.70;2.37;;;21.90;99.90;;;;;;4917757;29;20191;-75
